Time;durP1;ratioP1;P1;durP2;ratioP2;P2;SDS_P1;SDS_P2;PMS_P1;PMS_P2;Temp;Humidity;BMP_temperature;BMP_pressure;BME280_temperature;BME280_humidity;BME280_pressure;Samples;Min_cycle;Max_cycle;Signal;HPM_P1;HPM_P2
2024/01/09 00:01:02;;;;;;;3.27;2.23;;;;;;;-2.18;100.00;103924.00;6102121;28;20238;-66
2024/01/09 00:04:23;;;;;;;2.77;2.20;;;;;;;-2.30;100.00;103920.31;6107923;28;20227;-65
2024/01/09 00:07:44;;;;;;;4.30;2.57;;;;;;;-2.34;100.00;103923.78;6103728;28;20539;-65
2024/01/09 00:11:05;;;;;;;2.97;2.53;;;;;;;-2.36;100.00;103930.81;6093612;28;20240;-65
2024/01/09 00:14:27;;;;;;;2.27;2.10;;;;;;;-2.33;100.00;103929.09;6088097;28;20251;-66
2024/01/09 00:17:48;;;;;;;6.43;3.27;;;;;;;-2.32;100.00;103922.94;6100681;28;20244;-66
2024/01/09 00:21:09;;;;;;;2.30;2.10;;;;;;;-2.48;100.00;103918.31;6107627;28;20228;-66
2024/01/09 00:24:30;;;;;;;2.93;2.30;;;;;;;-2.49;100.00;103917.44;6100936;28;20259;-66
2024/01/09 00:27:51;;;;;;;2.60;2.40;;;;;;;-2.42;100.00;103918.41;6095575;28;20247;-66
2024/01/09 00:31:13;;;;;;;2.17;1.97;;;;;;;-2.46;100.00;103916.56;6088758;28;20235;-66
2024/01/09 00:34:34;;;;;;;2.33;2.10;;;;;;;-2.46;100.00;103920.09;6104162;28;20618;-66
2024/01/09 00:37:55;;;;;;;3.63;2.40;;;;;;;-2.41;100.00;103914.88;6096970;28;20244;-66
2024/01/09 00:41:16;;;;;;;2.27;2.07;;;;;;;-2.48;100.00;103923.59;6099871;28;20239;-66
2024/01/09 00:44:37;;;;;;;2.20;2.00;;;;;;;-2.52;100.00;103913.84;6102194;28;20232;-65
2024/01/09 00:47:59;;;;;;;4.07;2.27;;;;;;;-2.55;100.00;103914.72;6097458;28;20239;-66
2024/01/09 00:51:20;;;;;;;4.40;2.77;;;;;;;-2.57;100.00;103903.25;6104077;28;20287;-66
2024/01/09 00:54:42;;;;;;;6.37;2.43;;;;;;;-2.65;100.00;103902.22;6107941;28;20920;-66
2024/01/09 00:58:04;;;;;;;7.33;2.67;;;;;;;-2.69;100.00;103904.84;6104995;28;20251;-65
2024/01/09 01:01:24;;;;;;;1.90;1.60;;;;;;;-2.77;100.00;103909.97;6109072;28;20239;-67
2024/01/09 01:04:47;;;;;;;2.37;2.17;;;;;;;-2.63;100.00;103904.91;6110550;28;20228;-66
2024/01/09 01:08:07;;;;;;;2.27;1.40;;;;;;;-2.58;100.00;103897.94;6106149;28;20236;-66
2024/01/09 01:11:28;;;;;;;2.50;2.30;;;;;;;-2.55;100.00;103897.97;6106127;28;20243;-66
2024/01/09 01:14:49;;;;;;;2.83;2.27;;;;;;;-2.52;100.00;103898.00;6102260;28;20240;-66
2024/01/09 01:18:10;;;;;;;2.97;2.77;;;;;;;-2.52;100.00;103901.53;6097943;28;23218;-66
2024/01/09 01:21:33;;;;;;;2.27;2.10;;;;;;;-2.58;100.00;103900.56;6107580;28;20236;-66
2024/01/09 01:24:54;;;;;;;2.20;2.00;;;;;;;-2.57;100.00;103905.91;6105164;28;20256;-67
2024/01/09 01:28:15;;;;;;;2.43;2.20;;;;;;;-2.54;100.00;103903.28;6104828;28;20564;-66
2024/01/09 01:31:36;;;;;;;6.70;2.57;;;;;;;-2.60;100.00;103900.56;6101680;28;20508;-66
2024/01/09 01:34:57;;;;;;;3.20;2.43;;;;;;;-2.62;100.00;103894.38;6105633;28;20244;-66
2024/01/09 01:38:20;;;;;;;2.53;1.63;;;;;;;-2.64;100.00;103895.22;6102847;28;20328;-65
2024/01/09 01:41:41;;;;;;;2.00;1.87;;;;;;;-2.69;100.00;103894.28;6107179;28;20243;-65
2024/01/09 01:45:02;;;;;;;2.60;2.23;;;;;;;-2.70;100.00;103903.03;6100211;28;20707;-65
2024/01/09 01:48:24;;;;;;;2.37;2.17;;;;;;;-2.75;100.00;103904.72;6102755;28;20504;-66
2024/01/09 01:51:47;;;;;;;2.77;2.33;;;;;;;-2.75;100.00;103896.78;6100183;28;20594;-65
2024/01/09 01:55:11;;;;;;;3.07;2.77;;;;;;;-2.75;100.00;103896.78;6107771;28;20248;-65
2024/01/09 01:58:33;;;;;;;2.60;2.40;;;;;;;-2.73;100.00;103908.25;6106446;28;20236;-65
2024/01/09 02:01:54;;;;;;;2.87;2.20;;;;;;;-2.73;100.00;103906.53;6101020;28;20243;-66
2024/01/09 02:05:17;;;;;;;1.80;1.70;;;;;;;-2.68;100.00;103903.94;6108460;28;20262;-66
2024/01/09 02:08:39;;;;;;;3.50;3.13;;;;;;;-2.77;100.00;103896.78;6110287;28;20228;-67
2024/01/09 02:12:01;;;;;;;1.70;1.60;;;;;;;-2.80;100.00;103902.03;6100324;28;20240;-66
2024/01/09 02:15:21;;;;;;;3.00;2.27;;;;;;;-2.82;100.00;103897.59;6101852;28;20613;-66
2024/01/09 02:18:42;;;;;;;2.40;2.07;;;;;;;-2.89;100.00;103901.00;6099985;28;20239;-66
2024/01/09 02:22:04;;;;;;;2.40;2.20;;;;;;;-2.87;100.00;103896.63;6112487;28;20224;-64
2024/01/09 02:25:25;;;;;;;2.50;2.30;;;;;;;-2.88;100.00;103892.22;6105046;28;20602;-65
2024/01/09 02:28:52;;;;;;;7.53;2.83;;;;;;;-2.82;100.00;103892.31;6104949;28;20258;-65
2024/01/09 02:32:17;;;;;;;2.53;2.30;;;;;;;-2.83;100.00;103891.41;6096681;28;20244;-64
2024/01/09 02:35:38;;;;;;;3.90;3.57;;;;;;;-2.85;100.00;103887.88;6102382;28;20240;-65
2024/01/09 02:38:59;;;;;;;2.20;2.10;;;;;;;-2.92;100.00;103888.63;6101236;28;20235;-66
2024/01/09 02:42:20;;;;;;;1.87;1.77;;;;;;;-2.90;100.00;103892.19;6093926;28;20240;-65
2024/01/09 02:45:40;;;;;;;8.20;2.23;;;;;;;-2.94;100.00;103886.84;6099790;28;21299;-66
2024/01/09 02:49:03;;;;;;;3.23;2.43;;;;;;;-2.90;100.00;103889.53;6096367;28;20247;-65
2024/01/09 02:52:24;;;;;;;2.13;1.90;;;;;;;-2.88;100.00;103894.88;6093926;28;20240;-65
2024/01/09 02:55:45;;;;;;;2.30;2.10;;;;;;;-2.97;100.00;103894.72;6097705;28;20223;-66
2024/01/09 02:59:06;;;;;;;1.67;1.57;;;;;;;-2.93;100.00;103900.06;6103577;28;20246;-66
2024/01/09 03:02:27;;;;;;;5.23;3.67;;;;;;;-3.03;100.00;103891.97;6105391;28;20592;-66
2024/01/09 03:05:49;;;;;;;1.80;1.70;;;;;;;-3.10;100.00;103896.28;6102438;28;20490;-65
2024/01/09 03:09:11;;;;;;;3.43;2.43;;;;;;;-3.17;100.00;103893.53;6110645;28;20231;-66
2024/01/09 03:12:32;;;;;;;2.17;2.07;;;;;;;-3.14;100.00;103899.72;6098519;28;20235;-66
2024/01/09 03:15:53;;;;;;;2.37;2.03;;;;;;;-3.19;100.00;103892.63;6098740;28;20375;-65
2024/01/09 03:19:14;;;;;;;2.33;1.83;;;;;;;-3.19;100.00;103897.88;6100052;28;20595;-66
2024/01/09 03:22:36;;;;;;;2.10;2.00;;;;;;;-3.15;100.00;103890.03;6098728;28;20229;-66
2024/01/09 03:25:57;;;;;;;2.50;2.30;;;;;;;-3.18;100.00;103889.09;6104032;28;20506;-65
2024/01/09 03:29:18;;;;;;;2.23;2.00;;;;;;;-3.18;100.00;103895.25;6098527;28;20235;-66
2024/01/09 03:32:39;;;;;;;2.33;2.13;;;;;;;-3.20;100.00;103897.00;6089048;28;20259;-65
2024/01/09 03:36:04;;;;;;;2.10;2.00;;;;;;;-3.21;100.00;103897.84;6098292;28;20235;-66
2024/01/09 03:39:27;;;;;;;2.00;1.80;;;;;;;-3.12;100.00;103890.09;6101435;28;20231;-65
2024/01/09 03:42:48;;;;;;;5.53;2.30;;;;;;;-3.22;100.00;103888.16;6101279;28;20315;-65
2024/01/09 03:46:09;;;;;;;2.30;1.97;;;;;;;-3.26;100.00;103881.06;6094808;28;20240;-65
2024/01/09 03:49:30;;;;;;;1.87;1.77;;;;;;;-3.26;100.00;103883.72;6099756;28;20238;-66
2024/01/09 03:52:51;;;;;;;3.13;2.93;;;;;;;-3.19;100.00;103879.44;6098336;28;20350;-66
2024/01/09 03:56:13;;;;;;;3.37;2.17;;;;;;;-3.28;100.00;103874.88;6102286;28;20248;-66
2024/01/09 03:59:34;;;;;;;1.97;1.87;;;;;;;-3.26;100.00;103874.06;6101595;28;20232;-67
2024/01/09 04:02:54;;;;;;;2.37;2.17;;;;;;;-3.10;100.00;103877.81;6097843;28;20232;-67
2024/01/09 04:06:15;;;;;;;2.27;1.63;;;;;;;-3.05;100.00;103881.41;6093172;28;20239;-65
2024/01/09 04:09:37;;;;;;;1.97;1.83;;;;;;;-3.03;100.00;103881.44;6098722;28;20570;-66
2024/01/09 04:13:00;;;;;;;2.87;2.13;;;;;;;-3.04;100.00;103880.53;6099754;28;20236;-66
2024/01/09 04:16:20;;;;;;;2.10;2.00;;;;;;;-3.14;100.00;103881.25;6099110;28;20231;-65
2024/01/09 04:19:41;;;;;;;2.77;1.90;;;;;;;-3.30;100.00;103880.13;6099063;28;20622;-65
2024/01/09 04:23:02;;;;;;;1.80;1.70;;;;;;;-3.26;100.00;103884.59;6111261;28;20255;-66
2024/01/09 04:26:23;;;;;;;2.83;2.60;;;;;;;-3.19;100.00;103877.66;6103677;28;20655;-66
2024/01/09 04:29:46;;;;;;;3.30;3.03;;;;;;;-3.15;100.00;103883.88;6102262;28;20625;-66
2024/01/09 04:33:08;;;;;;;2.60;2.40;;;;;;;-3.22;100.00;103882.00;6100143;28;20236;-66
2024/01/09 04:36:29;;;;;;;2.40;1.93;;;;;;;-3.33;100.00;103873.91;6102087;28;20255;-66
2024/01/09 04:39:50;;;;;;;5.30;2.87;;;;;;;-3.45;100.00;103871.97;6093764;28;20247;-65
2024/01/09 04:43:11;;;;;;;2.80;2.17;;;;;;;-3.57;100.00;103877.03;6103831;28;20232;-65
2024/01/09 04:46:33;;;;;;;1.87;1.63;;;;;;;-3.65;100.00;103878.63;6104556;28;20235;-65
2024/01/09 04:49:54;;;;;;;2.93;2.10;;;;;;;-3.52;100.00;103878.00;6097835;28;20239;-65
2024/01/09 04:53:15;;;;;;;2.47;2.27;;;;;;;-3.53;100.00;103876.22;6098992;28;20757;-66
2024/01/09 04:56:36;;;;;;;2.80;2.60;;;;;;;-3.42;100.00;103882.56;6098580;28;20691;-65
2024/01/09 04:59:58;;;;;;;2.33;2.13;;;;;;;-3.38;100.00;103883.50;6099189;28;20648;-65
2024/01/09 05:03:20;;;;;;;4.03;2.73;;;;;;;-3.47;100.00;103878.97;6106863;28;20228;-65
2024/01/09 05:06:41;;;;;;;3.27;3.07;;;;;;;-3.65;100.00;103881.25;6103070;28;20244;-65
2024/01/09 05:10:02;;;;;;;2.30;2.17;;;;;;;-3.69;100.00;103882.06;6109344;28;20239;-65
2024/01/09 05:13:23;;;;;;;17.60;14.80;;;;;;;-3.66;100.00;103882.13;6094050;28;20224;-65
2024/01/09 05:16:44;;;;;;;27.67;24.10;;;;;;;-3.69;100.00;103876.81;6103143;28;20240;-65
2024/01/09 05:20:07;;;;;;;11.90;10.73;;;;;;;-3.79;100.00;103876.59;6093411;28;20279;-65
2024/01/09 05:23:29;;;;;;;31.73;22.67;;;;;;;-3.84;100.00;103879.19;6099782;28;20236;-65
2024/01/09 05:26:49;;;;;;;6.10;4.87;;;;;;;-3.86;100.00;103883.53;6100316;28;20236;-66
2024/01/09 05:30:11;;;;;;;3.40;3.10;;;;;;;-3.83;100.00;103878.31;6100989;28;22820;-66
2024/01/09 05:33:32;;;;;;;13.47;10.80;;;;;;;-3.86;100.00;103883.53;6097144;28;20248;-66
2024/01/09 05:36:54;;;;;;;20.00;13.83;;;;;;;-3.89;100.00;103877.28;6105508;28;21142;-66
2024/01/09 05:40:16;;;;;;;4.67;4.17;;;;;;;-3.82;100.00;103876.56;6102760;28;20634;-66
2024/01/09 05:43:37;;;;;;;23.90;18.13;;;;;;;-3.85;100.00;103874.75;6099888;28;20236;-66
2024/01/09 05:46:58;;;;;;;6.60;5.13;;;;;;;-3.89;100.00;103875.56;6103643;28;20235;-65
2024/01/09 05:50:19;;;;;;;4.83;4.40;;;;;;;-3.85;100.00;103881.75;6099675;28;21029;-67
2024/01/09 05:53:41;;;;;;;3.63;3.33;;;;;;;-3.69;100.00;103887.34;6099022;28;20232;-66
2024/01/09 05:57:03;;;;;;;4.07;3.60;;;;;;;-3.65;100.00;103883.91;6096516;28;20239;-66
2024/01/09 06:00:24;;;;;;;3.80;3.20;;;;;;;-3.73;100.00;103887.25;6102174;28;20235;-66
2024/01/09 06:03:45;;;;;;;5.20;3.10;;;;;;;-3.65;100.00;103893.56;6112941;28;20240;-66
2024/01/09 06:07:06;;;;;;;6.90;2.90;;;;;;;-3.66;100.00;103882.13;6112424;28;20236;-66
2024/01/09 06:10:28;;;;;;;3.80;3.50;;;;;;;-3.60;100.00;103891.88;6104953;28;20228;-67
2024/01/09 06:13:49;;;;;;;3.57;3.27;;;;;;;-3.61;100.00;103890.13;6102755;28;20232;-67
2024/01/09 06:17:10;;;;;;;2.67;2.50;;;;;;;-3.63;100.00;103898.00;6104846;28;20227;-66
2024/01/09 06:20:31;;;;;;;3.03;2.73;;;;;;;-3.68;100.00;103890.88;6101774;28;20646;-66
2024/01/09 06:23:52;;;;;;;3.40;3.00;;;;;;;-3.65;100.00;103893.56;6106285;28;20458;-66
2024/01/09 06:27:15;;;;;;;4.50;3.80;;;;;;;-3.63;100.00;103886.59;6122143;28;20547;-65
2024/01/09 06:30:35;;;;;;;4.00;3.53;;;;;;;-3.61;100.00;103890.13;6110350;28;20555;-66
2024/01/09 06:33:56;;;;;;;3.33;3.03;;;;;;;-3.60;100.00;103894.53;6098950;28;21962;-66
2024/01/09 06:37:17;;;;;;;3.20;2.90;;;;;;;-3.64;100.00;103898.88;6101045;28;20232;-67
2024/01/09 06:40:38;;;;;;;7.50;5.03;;;;;;;-3.66;100.00;103892.69;6111604;28;20235;-66
2024/01/09 06:44:00;;;;;;;4.20;2.90;;;;;;;-3.63;100.00;103890.09;6104794;28;20326;-65
2024/01/09 06:47:21;;;;;;;4.97;3.20;;;;;;;-3.58;100.00;103892.81;6099244;28;20232;-67
2024/01/09 06:50:42;;;;;;;4.03;3.43;;;;;;;-3.64;100.00;103895.34;6112156;28;20228;-66
2024/01/09 06:54:03;;;;;;;3.30;2.90;;;;;;;-3.65;100.00;103898.84;6105698;28;20232;-66
2024/01/09 06:57:24;;;;;;;4.47;3.87;;;;;;;-3.70;100.00;103904.03;6102087;28;20232;-66
2024/01/09 07:00:47;;;;;;;5.27;3.03;;;;;;;-3.72;100.00;103904.84;6103880;28;20224;-67
2024/01/09 07:04:08;;;;;;;4.63;4.17;;;;;;;-3.71;100.00;103904.00;6101951;28;20231;-67
2024/01/09 07:07:29;;;;;;;3.53;3.23;;;;;;;-3.72;100.00;103903.13;6107956;28;20255;-66
2024/01/09 07:10:50;;;;;;;3.43;2.77;;;;;;;-3.86;100.00;103906.34;6111748;28;20253;-66
2024/01/09 07:14:11;;;;;;;4.73;4.20;;;;;;;-3.91;100.00;103906.25;6098599;28;20220;-67
2024/01/09 07:17:33;;;;;;;3.30;3.00;;;;;;;-3.78;100.00;103910.91;6103267;28;20236;-66
2024/01/09 07:20:54;;;;;;;5.13;4.70;;;;;;;-3.74;100.00;103915.38;6099619;28;20957;-67
2024/01/09 07:24:15;;;;;;;4.50;3.73;;;;;;;-3.72;100.00;103918.03;6100295;28;20575;-66
2024/01/09 07:27:36;;;;;;;6.27;5.53;;;;;;;-3.72;100.00;103918.94;6115874;28;20248;-67
2024/01/09 07:30:57;;;;;;;4.17;3.77;;;;;;;-3.66;100.00;103919.03;6108311;28;20235;-67
2024/01/09 07:34:19;;;;;;;6.70;3.30;;;;;;;-3.66;100.00;103926.03;6109171;28;20236;-66
2024/01/09 07:37:40;;;;;;;5.53;4.43;;;;;;;-3.74;100.00;103927.66;6119268;28;21084;-66
2024/01/09 07:41:02;;;;;;;5.43;3.33;;;;;;;-3.60;100.00;103927.06;6103085;28;20236;-67
2024/01/09 07:44:23;;;;;;;4.43;3.67;;;;;;;-3.58;100.00;103929.72;6095729;28;20610;-67
2024/01/09 07:47:44;;;;;;;4.73;3.83;;;;;;;-3.55;100.00;103922.78;6104492;28;20236;-65
2024/01/09 07:51:06;;;;;;;3.90;3.03;;;;;;;-3.50;100.00;103923.72;6098138;28;20236;-66
2024/01/09 07:54:27;;;;;;;4.80;4.33;;;;;;;-3.62;100.00;103919.97;6099763;28;20266;-66
2024/01/09 07:57:48;;;;;;;8.67;7.70;;;;;;;-3.47;100.00;103922.88;6100845;28;20228;-66
2024/01/09 08:01:09;;;;;;;21.27;17.50;;;;;;;-3.40;100.00;103928.28;6097317;28;20236;-67
2024/01/09 08:04:30;;;;;;;9.03;7.10;;;;;;;-3.39;100.00;103926.53;6099750;28;20321;-66
2024/01/09 08:07:52;;;;;;;4.87;3.53;;;;;;;-3.52;100.00;103920.16;6101567;28;20318;-67
2024/01/09 08:11:13;;;;;;;5.03;4.57;;;;;;;-3.46;100.00;103920.28;6097314;28;20240;-66
2024/01/09 08:14:34;;;;;;;7.67;4.20;;;;;;;-3.60;100.00;103918.25;6109262;28;20235;-66
2024/01/09 08:17:55;;;;;;;4.70;4.00;;;;;;;-3.52;100.00;103920.16;6116143;28;20228;-67
2024/01/09 08:21:16;;;;;;;5.17;4.63;;;;;;;-3.45;100.00;103922.06;6112320;28;20601;-68
2024/01/09 08:24:38;;;;;;;6.80;6.13;;;;;;;-3.34;100.00;103920.47;6116913;28;20236;-67
2024/01/09 08:27:59;;;;;;;29.40;25.07;;;;;;;-3.34;100.00;103923.13;6108550;28;20232;-67
2024/01/09 08:31:20;;;;;;;9.70;8.77;;;;;;;-2.90;100.00;103921.19;6110728;28;20228;-66
2024/01/09 08:34:41;;;;;;;6.47;5.10;;;;;;;-1.62;100.00;103919.34;6110230;28;20579;-67
2024/01/09 08:38:03;;;;;;;4.20;3.17;;;;;;;-0.08;100.00;103915.16;6108224;28;20236;-66
2024/01/09 08:41:25;;;;;;;5.07;4.10;;;;;;;1.18;100.00;103905.63;6112768;28;20330;-66
2024/01/09 08:44:46;;;;;;;4.60;4.20;;;;;;;2.84;100.00;103904.81;6108012;28;20231;-66
2024/01/09 08:48:08;;;;;;;3.93;3.50;;;;;;;4.67;100.00;103896.34;6111690;28;20235;-67
2024/01/09 08:51:28;;;;;;;5.63;2.97;;;;;;;5.28;100.00;103890.84;6110328;28;20227;-66
2024/01/09 08:54:49;;;;;;;3.90;3.37;;;;;;;6.82;100.00;103882.09;6117033;28;20686;-66
2024/01/09 08:58:12;;;;;;;6.03;4.23;;;;;;;7.30;99.96;103877.28;6112504;28;20307;-66
2024/01/09 09:01:35;;;;;;;5.90;3.50;;;;;;;8.25;88.34;103870.91;6107613;28;20327;-66
2024/01/09 09:04:56;;;;;;;6.10;3.43;;;;;;;8.00;80.43;103882.41;6111601;28;20244;-66
2024/01/09 09:08:17;;;;;;;21.13;15.80;;;;;;;9.73;74.91;103871.19;6114994;28;20898;-66
2024/01/09 09:11:38;;;;;;;7.07;6.30;;;;;;;9.82;71.20;103862.75;6120603;28;20235;-66
2024/01/09 09:15:01;;;;;;;6.67;4.87;;;;;;;9.64;67.11;103873.28;6106263;28;20223;-66
2024/01/09 09:18:22;;;;;;;3.27;2.77;;;;;;;9.63;64.86;103871.53;6115753;28;20229;-67
2024/01/09 09:21:42;;;;;;;4.53;4.13;;;;;;;10.40;62.33;103873.94;6110720;28;20235;-66
2024/01/09 09:25:04;;;;;;;6.00;4.33;;;;;;;11.25;57.79;103878.44;6116609;28;20235;-67
2024/01/09 09:28:25;;;;;;;4.07;3.67;;;;;;;11.61;54.88;103868.72;6110363;28;20245;-67
2024/01/09 09:31:47;;;;;;;6.07;4.40;;;;;;;11.30;54.34;103876.44;6118147;28;20236;-66
2024/01/09 09:35:09;;;;;;;3.23;2.93;;;;;;;12.10;52.77;103874.59;6118041;28;20235;-66
2024/01/09 09:38:30;;;;;;;3.93;3.37;;;;;;;11.52;53.07;103877.22;6114938;28;20259;-67
2024/01/09 09:41:55;;;;;;;6.87;3.63;;;;;;;12.10;51.70;103872.75;6117014;28;20235;-67
2024/01/09 09:45:20;;;;;;;4.18;3.78;;;;;;;12.31;50.49;103871.72;6107672;28;20239;-67
2024/01/09 09:48:42;;;;;;;4.13;3.25;;;;;;;12.59;47.96;103872.13;6116853;28;20232;-67
2024/01/09 09:52:04;;;;;;;4.90;3.88;;;;;;;13.17;46.49;103866.50;6108482;28;20232;-67
2024/01/09 09:55:25;;;;;;;6.78;3.95;;;;;;;14.01;48.45;103858.31;6114385;28;20224;-65
2024/01/09 09:58:48;;;;;;;13.68;12.20;;;;;;;15.60;43.83;103845.19;6119028;28;20232;-67
2024/01/09 10:02:16;;;;;;;5.30;4.75;;;;;;;14.74;41.15;103852.28;6108160;28;20247;-67
2024/01/09 10:05:39;;;;;;;3.70;3.40;;;;;;;15.14;40.52;103857.13;6118427;28;20243;-66
2024/01/09 10:09:03;;;;;;;3.55;3.15;;;;;;;14.61;39.55;103863.00;6104540;28;20614;-66
2024/01/09 10:12:24;;;;;;;5.80;3.97;;;;;;;15.21;39.11;103867.50;6112128;28;20224;-66
2024/01/09 10:15:58;;;;;;;3.05;2.45;;;;;;;14.94;37.59;103855.56;6114582;28;20236;-66
2024/01/09 10:19:21;;;;;;;3.03;2.70;;;;;;;15.63;36.38;103861.31;6106695;28;20231;-67
2024/01/09 10:22:43;;;;;;;3.38;3.05;;;;;;;14.30;37.43;103868.44;6101012;28;20267;-67
2024/01/09 10:26:10;;;;;;;4.70;4.30;;;;;;;14.90;36.84;103859.44;6109938;28;20235;-67
2024/01/09 10:29:31;;;;;;;3.15;2.85;;;;;;;15.93;36.28;103856.66;6111409;28;20235;-66
2024/01/09 10:32:53;;;;;;;4.18;3.10;;;;;;;14.02;37.45;103863.63;6108980;28;20240;-67
2024/01/09 10:36:14;;;;;;;4.15;3.33;;;;;;;14.67;35.41;103848.19;6113087;28;20243;-67
2024/01/09 10:39:37;;;;;;;2.55;2.35;;;;;;;16.37;33.68;103848.34;6110253;28;20235;-67
2024/01/09 10:42:58;;;;;;;3.08;2.38;;;;;;;15.92;34.02;103860.34;6110057;28;20233;-68
2024/01/09 10:46:24;;;;;;;3.28;2.55;;;;;;;16.36;33.23;103857.47;6114432;28;20236;-67
2024/01/09 10:49:48;;;;;;;2.88;2.47;;;;;;;15.33;34.34;103852.31;6115114;28;20239;-67
2024/01/09 10:53:10;;;;;;;2.60;2.40;;;;;;;17.22;32.31;103850.72;6112621;28;20239;-67
2024/01/09 10:56:35;;;;;;;3.63;3.10;;;;;;;16.93;32.22;103855.47;6114789;28;20244;-67
2024/01/09 11:00:00;;;;;;;2.55;2.25;;;;;;;16.65;32.12;103841.94;6113361;28;20239;-67
2024/01/09 11:03:22;;;;;;;2.67;2.17;;;;;;;16.87;32.32;103847.69;6110102;28;21038;-67
2024/01/09 11:06:45;;;;;;;2.50;2.30;;;;;;;17.97;31.26;103837.13;6105652;28;20240;-66
2024/01/09 11:10:07;;;;;;;2.50;2.30;;;;;;;16.40;32.49;103844.50;6100672;28;20231;-67
2024/01/09 11:13:31;;;;;;;2.60;2.38;;;;;;;16.67;32.54;103840.88;6106623;28;20399;-66
2024/01/09 11:16:54;;;;;;;2.67;2.45;;;;;;;16.85;32.87;103830.59;6112058;28;20264;-67
2024/01/09 11:20:16;;;;;;;3.20;2.63;;;;;;;16.49;33.70;103838.47;6112164;28;20982;-67
2024/01/09 11:23:54;;;;;;;2.65;2.45;;;;;;;15.80;33.53;103825.75;6110671;28;20660;-66
2024/01/09 11:27:17;;;;;;;2.67;1.92;;;;;;;16.20;33.86;103817.72;6088699;28;20322;-67
2024/01/09 11:30:39;;;;;;;1.70;1.60;;;;;;;15.79;34.45;103815.84;6112284;28;20243;-68
2024/01/09 11:34:02;;;;;;;2.17;1.98;;;;;;;15.97;33.78;103805.63;6113150;28;20557;-67
2024/01/09 11:37:24;;;;;;;2.13;1.90;;;;;;;16.13;34.81;103800.03;6112465;28;20235;-67
2024/01/09 11:40:45;;;;;;;3.03;2.75;;;;;;;16.43;34.25;103789.84;6109893;28;20243;-67
2024/01/09 11:44:10;;;;;;;1.95;1.85;;;;;;;16.93;33.14;103792.78;6108819;28;20224;-67
2024/01/09 11:47:32;;;;;;;2.47;1.90;;;;;;;16.92;33.24;103787.44;6108724;28;20287;-67
2024/01/09 11:50:53;;;;;;;2.75;1.85;;;;;;;16.36;34.35;103783.94;6105133;28;20240;-67
2024/01/09 11:54:14;;;;;;;2.58;1.80;;;;;;;16.25;34.57;103780.19;6113112;28;21070;-66
2024/01/09 11:57:36;;;;;;;2.38;2.17;;;;;;;16.82;34.35;103779.00;6112610;28;20240;-67
2024/01/09 12:00:57;;;;;;;1.98;1.73;;;;;;;17.01;33.60;103773.16;6106349;28;20681;-68
2024/01/09 12:04:20;;;;;;;3.03;2.05;;;;;;;16.68;34.03;103773.63;6105479;28;20247;-67
2024/01/09 12:07:41;;;;;;;2.33;2.10;;;;;;;17.26;33.18;103763.16;6106400;28;20741;-67
2024/01/09 12:11:02;;;;;;;2.88;2.33;;;;;;;17.38;33.07;103764.09;6104889;28;20568;-66
2024/01/09 12:14:23;;;;;;;2.33;1.60;;;;;;;16.81;33.53;103765.50;6106411;28;20224;-66
2024/01/09 12:17:52;;;;;;;1.80;1.70;;;;;;;16.92;33.22;103755.56;6103627;28;20314;-68
2024/01/09 12:21:14;;;;;;;2.10;1.80;;;;;;;17.89;32.70;103756.75;6110861;28;20251;-67
2024/01/09 12:24:35;;;;;;;3.20;2.60;;;;;;;16.37;34.03;103754.88;6105506;28;20606;-67
2024/01/09 12:27:58;;;;;;;2.17;2.00;;;;;;;15.54;34.54;103753.09;6108536;28;20231;-68
2024/01/09 12:31:19;;;;;;;2.17;1.95;;;;;;;15.96;34.96;103753.03;6115292;28;20953;-67
2024/01/09 12:34:40;;;;;;;2.83;2.60;;;;;;;14.31;36.96;103751.63;6095700;28;20224;-68
2024/01/09 12:38:03;;;;;;;1.75;1.65;;;;;;;13.62;39.37;103742.94;6107171;28;20231;-67
2024/01/09 12:41:24;;;;;;;1.63;1.52;;;;;;;11.95;43.97;103749.97;6103815;28;20251;-68
2024/01/09 12:44:44;;;;;;;2.30;2.10;;;;;;;10.96;47.53;103757.34;6112436;28;20255;-67
2024/01/09 12:48:07;;;;;;;2.20;2.00;;;;;;;10.18;51.64;103748.16;6115326;28;20236;-67
2024/01/09 12:51:32;;;;;;;1.83;1.60;;;;;;;10.65;51.94;103759.63;6117087;28;20562;-67
2024/01/09 12:54:54;;;;;;;2.17;1.97;;;;;;;10.15;53.83;103756.38;6115489;28;20505;-67
2024/01/09 12:58:15;;;;;;;2.17;1.80;;;;;;;9.75;56.31;103745.38;6114736;28;20239;-67
2024/01/09 13:01:36;;;;;;;2.73;2.20;;;;;;;9.24;57.71;103751.81;6118785;28;20244;-67
2024/01/09 13:04:57;;;;;;;2.03;1.90;;;;;;;9.44;57.59;103746.59;6115969;28;20239;-67
2024/01/09 13:08:18;;;;;;;3.27;2.57;;;;;;;10.38;55.34;103749.09;6108763;28;20228;-67
2024/01/09 13:11:42;;;;;;;2.73;2.40;;;;;;;10.64;53.90;103729.06;6112652;28;20288;-67
2024/01/09 13:15:03;;;;;;;2.23;2.03;;;;;;;10.20;53.86;103730.09;6115185;28;20231;-67
2024/01/09 13:18:24;;;;;;;2.50;2.30;;;;;;;10.29;55.45;103727.00;6112482;28;20258;-67
2024/01/09 13:21:45;;;;;;;3.10;2.80;;;;;;;8.60;60.55;103744.31;6114122;28;20752;-66
2024/01/09 13:25:08;;;;;;;2.03;1.93;;;;;;;8.88;64.52;103741.53;6116201;28;20235;-68
2024/01/09 13:28:30;;;;;;;2.73;2.53;;;;;;;8.63;62.86;103745.09;6113359;28;20518;-68
2024/01/09 13:31:51;;;;;;;2.63;2.33;;;;;;;7.92;65.43;103742.09;6100499;28;20314;-67
2024/01/09 13:35:12;;;;;;;3.03;2.67;;;;;;;7.34;67.64;103747.50;6117448;28;20227;-67
2024/01/09 13:38:33;;;;;;;3.50;2.53;;;;;;;7.24;70.09;103746.84;6109997;28;20224;-67
2024/01/09 13:41:54;;;;;;;4.23;2.80;;;;;;;7.21;71.50;103746.06;6114180;28;21134;-67
2024/01/09 13:45:17;;;;;;;3.07;2.77;;;;;;;7.17;71.67;103744.41;6114887;28;20228;-67
2024/01/09 13:48:40;;;;;;;10.83;9.73;;;;;;;6.42;73.32;103739.31;6107638;28;20241;-68
2024/01/09 13:52:01;;;;;;;11.40;9.53;;;;;;;5.53;78.04;103747.66;6116571;28;20231;-66
2024/01/09 13:55:22;;;;;;;4.50;3.07;;;;;;;5.58;79.84;103740.41;6111373;28;20270;-67
2024/01/09 13:58:43;;;;;;;4.57;3.37;;;;;;;4.79;82.70;103753.66;6113119;28;20236;-67
2024/01/09 14:02:08;;;;;;;4.77;2.57;;;;;;;4.32;85.94;103746.47;6109623;28;20613;-68
2024/01/09 14:05:29;;;;;;;5.47;2.87;;;;;;;4.20;88.44;103746.69;6106667;28;20504;-67
2024/01/09 14:08:50;;;;;;;5.07;2.60;;;;;;;4.01;89.45;103747.88;6112019;28;20442;-68
2024/01/09 14:12:10;;;;;;;4.23;3.70;;;;;;;3.64;91.38;103739.53;6110935;28;20232;-67
2024/01/09 14:15:33;;;;;;;2.93;2.60;;;;;;;3.41;92.42;103744.31;6103856;28;20235;-68
2024/01/09 14:18:55;;;;;;;3.53;2.20;;;;;;;3.63;94.58;103743.09;6108858;28;20323;-68
2024/01/09 14:22:16;;;;;;;3.57;3.20;;;;;;;3.49;95.63;103744.19;6114293;28;20240;-67
2024/01/09 14:25:37;;;;;;;4.60;4.27;;;;;;;3.54;96.38;103735.25;6111931;28;20259;-67
2024/01/09 14:28:58;;;;;;;2.57;2.37;;;;;;;3.13;97.59;103733.09;6108893;28;20232;-67
2024/01/09 14:32:19;;;;;;;2.83;2.63;;;;;;;3.19;98.84;103730.34;6103012;28;20232;-67
2024/01/09 14:35:41;;;;;;;3.03;2.83;;;;;;;3.09;98.70;103731.38;6104880;28;20251;-67
2024/01/09 14:39:02;;;;;;;3.37;3.07;;;;;;;3.19;100.00;103727.69;6113045;28;20240;-67
2024/01/09 14:42:23;;;;;;;4.03;3.23;;;;;;;3.05;100.00;103734.97;6114334;28;20235;-66
2024/01/09 14:45:45;;;;;;;5.87;3.83;;;;;;;2.87;100.00;103729.88;6096366;28;20249;-66
2024/01/09 14:49:05;;;;;;;3.57;3.27;;;;;;;3.04;100.00;103735.00;6106981;28;20319;-66
2024/01/09 14:52:28;;;;;;;4.13;3.60;;;;;;;2.77;100.00;103730.88;6109944;28;20251;-67
2024/01/09 14:55:49;;;;;;;10.43;9.43;;;;;;;2.63;100.00;103738.09;6105532;28;20236;-66
2024/01/09 14:59:09;;;;;;;24.27;20.37;;;;;;;2.79;100.00;103730.84;6109758;28;20784;-67
2024/01/09 15:02:30;;;;;;;10.57;9.47;;;;;;;2.64;100.00;103731.00;6114960;28;21042;-66
2024/01/09 15:05:51;;;;;;;6.93;6.27;;;;;;;2.50;100.00;103736.47;6111982;28;20236;-66
2024/01/09 15:09:14;;;;;;;6.20;5.20;;;;;;;2.43;100.00;103730.31;6118241;28;20327;-66
2024/01/09 15:12:35;;;;;;;6.33;5.10;;;;;;;2.34;100.00;103729.50;6107465;28;20244;-67
2024/01/09 15:15:56;;;;;;;7.93;5.77;;;;;;;2.08;100.00;103726.19;6113975;28;20231;-67
2024/01/09 15:19:18;;;;;;;6.70;5.97;;;;;;;2.31;100.00;103738.44;6091476;28;20244;-67
2024/01/09 15:22:39;;;;;;;7.17;5.43;;;;;;;2.07;100.00;103735.06;6113892;28;20637;-67
2024/01/09 15:26:01;;;;;;;8.07;7.30;;;;;;;1.98;100.00;103732.50;6115805;28;20239;-68
2024/01/09 15:32:17;;;;;;;7.10;6.50;;;;;;;1.98;100.00;103732.50;6277345;27;20777;-67
2024/01/09 15:35:38;;;;;;;12.13;8.63;;;;;;;1.66;100.00;103719.41;6292554;28;20612;-68